sensor_id;sensor_type;location;lat;lon;timestamp;P1;P2;P0
57037;PMS5003;59942;49.304;8.256;2022-09-09T00:23:06;49.40;48.00;40.40
57037;PMS5003;59942;49.304;8.256;2022-09-09T00:40:51;56.60;50.40;42.80
57037;PMS5003;59942;49.304;8.256;2022-09-09T00:47:09;49.80;46.80;40.00
57037;PMS5003;59942;49.304;8.256;2022-09-09T00:56:29;49.80;48.00;40.80
57037;PMS5003;59942;49.304;8.256;2022-09-09T01:10:00;54.40;50.00;42.80
57037;PMS5003;59942;49.304;8.256;2022-09-09T01:16:50;48.00;46.00;40.00
57037;PMS5003;59942;49.304;8.256;2022-09-09T01:37:37;50.20;48.00;40.00
57037;PMS5003;59942;49.304;8.256;2022-09-09T02:11:28;49.00;48.00;40.00
57037;PMS5003;59942;49.304;8.256;2022-09-09T02:14:45;49.80;48.00;40.80
57037;PMS5003;59942;49.304;8.256;2022-09-09T02:40:13;70.50;60.75;50.50
57037;PMS5003;59942;49.304;8.256;2022-09-09T02:56:21;51.00;48.00;42.00
57037;PMS5003;59942;49.304;8.256;2022-09-09T03:05:56;68.25;59.00;49.00
57037;PMS5003;59942;49.304;8.256;2022-09-09T03:12:18;49.60;46.80;40.00
57037;PMS5003;59942;49.304;8.256;2022-09-09T03:18:31;52.80;49.60;42.00
57037;PMS5003;59942;49.304;8.256;2022-09-09T03:21:22;48.60;47.20;40.00
57037;PMS5003;59942;49.304;8.256;2022-09-09T03:24:19;48.40;46.80;40.00
57037;PMS5003;59942;49.304;8.256;2022-09-09T03:34:09;48.40;46.80;40.00
57037;PMS5003;59942;49.304;8.256;2022-09-09T03:39:53;48.00;46.00;40.00
57037;PMS5003;59942;49.304;8.256;2022-09-09T03:49:17;51.80;48.60;41.40
57037;PMS5003;59942;49.304;8.256;2022-09-09T03:55:40;48.00;46.00;40.00
57037;PMS5003;59942;49.304;8.256;2022-09-09T04:04:50;48.80;45.20;39.20
57037;PMS5003;59942;49.304;8.256;2022-09-09T04:18:40;49.00;48.00;40.00
57037;PMS5003;59942;49.304;8.256;2022-09-09T04:24:48;47.80;45.80;39.60
57037;PMS5003;59942;49.304;8.256;2022-09-09T04:28:21;47.60;45.80;39.80
57037;PMS5003;59942;49.304;8.256;2022-09-09T04:31:03;49.40;46.80;40.00
57037;PMS5003;59942;49.304;8.256;2022-09-09T04:44:00;48.20;46.40;40.00
57037;PMS5003;59942;49.304;8.256;2022-09-09T04:47:05;46.00;45.00;39.00
57037;PMS5003;59942;49.304;8.256;2022-09-09T05:00:01;50.40;47.80;40.80
57037;PMS5003;59942;49.304;8.256;2022-09-09T05:02:45;53.20;48.00;42.00
57037;PMS5003;59942;49.304;8.256;2022-09-09T05:05:24;51.00;48.00;40.00
57037;PMS5003;59942;49.304;8.256;2022-09-09T05:08:03;46.00;45.00;39.00
57037;PMS5003;59942;49.304;8.256;2022-09-09T05:11:33;48.00;46.00;40.00
57037;PMS5003;59942;49.304;8.256;2022-09-09T05:17:30;50.00;47.40;40.80
57037;PMS5003;59942;49.304;8.256;2022-09-09T05:20:17;48.00;46.00;40.00
57037;PMS5003;59942;49.304;8.256;2022-09-09T05:23:44;49.60;47.40;40.80
57037;PMS5003;59942;49.304;8.256;2022-09-09T05:26:24;50.00;48.20;40.80
57037;PMS5003;59942;49.304;8.256;2022-09-09T05:32:04;57.00;51.60;43.60
57037;PMS5003;59942;49.304;8.256;2022-09-09T05:35:16;51.00;48.00;42.00
57037;PMS5003;59942;49.304;8.256;2022-09-09T05:38:12;56.40;51.00;43.60
57037;PMS5003;59942;49.304;8.256;2022-09-09T05:40:48;48.00;46.00;40.00
57037;PMS5003;59942;49.304;8.256;2022-09-09T05:43:58;48.20;46.40;40.00
57037;PMS5003;59942;49.304;8.256;2022-09-09T05:46:35;54.40;48.80;41.40
57037;PMS5003;59942;49.304;8.256;2022-09-09T05:56:15;49.00;47.20;40.40
57037;PMS5003;59942;49.304;8.256;2022-09-09T05:59:34;66.25;57.25;47.50
57037;PMS5003;59942;49.304;8.256;2022-09-09T06:08:47;60.20;53.80;45.00
57037;PMS5003;59942;49.304;8.256;2022-09-09T06:11:22;49.00;48.00;40.00
57037;PMS5003;59942;49.304;8.256;2022-09-09T06:14:22;52.20;48.80;42.00
57037;PMS5003;59942;49.304;8.256;2022-09-09T06:20:18;52.20;48.80;42.00
57037;PMS5003;59942;49.304;8.256;2022-09-09T06:23:12;46.80;45.40;39.40
57037;PMS5003;59942;49.304;8.256;2022-09-09T06:26:02;48.00;46.00;40.00
57037;PMS5003;59942;49.304;8.256;2022-09-09T06:29:07;48.80;47.60;40.00
57037;PMS5003;59942;49.304;8.256;2022-09-09T06:32:06;52.00;49.00;42.00
57037;PMS5003;59942;49.304;8.256;2022-09-09T06:35:08;51.60;48.60;42.00
57037;PMS5003;59942;49.304;8.256;2022-09-09T06:43:46;52.00;48.00;40.80
57037;PMS5003;59942;49.304;8.256;2022-09-09T06:46:53;52.40;49.00;42.00
57037;PMS5003;59942;49.304;8.256;2022-09-09T06:49:26;48.00;46.00;40.00
57037;PMS5003;59942;49.304;8.256;2022-09-09T06:55:17;54.40;49.80;42.40
57037;PMS5003;59942;49.304;8.256;2022-09-09T06:57:58;52.00;49.00;42.00
57037;PMS5003;59942;49.304;8.256;2022-09-09T07:00:43;54.80;50.60;42.80
57037;PMS5003;59942;49.304;8.256;2022-09-09T07:03:32;52.40;49.00;42.00
57037;PMS5003;59942;49.304;8.256;2022-09-09T07:06:05;51.40;48.40;42.00
57037;PMS5003;59942;49.304;8.256;2022-09-09T07:08:42;58.00;51.00;42.00
57037;PMS5003;59942;49.304;8.256;2022-09-09T07:11:24;54.00;49.00;42.00
57037;PMS5003;59942;49.304;8.256;2022-09-09T07:14:06;54.20;49.40;42.20
57037;PMS5003;59942;49.304;8.256;2022-09-09T07:16:59;57.00;50.20;42.60
57037;PMS5003;59942;49.304;8.256;2022-09-09T07:19:34;54.20;49.40;42.20
57037;PMS5003;59942;49.304;8.256;2022-09-09T07:22:13;52.00;49.00;42.00
57037;PMS5003;59942;49.304;8.256;2022-09-09T07:25:01;54.80;50.00;42.40
57037;PMS5003;59942;49.304;8.256;2022-09-09T07:27:28;56.20;50.20;42.20
57037;PMS5003;59942;49.304;8.256;2022-09-09T07:30:15;51.60;48.60;42.00
57037;PMS5003;59942;49.304;8.256;2022-09-09T07:33:11;55.40;51.20;43.00
57037;PMS5003;59942;49.304;8.256;2022-09-09T07:35:39;53.20;49.00;42.00
57037;PMS5003;59942;49.304;8.256;2022-09-09T07:38:11;67.60;58.00;48.00
57037;PMS5003;59942;49.304;8.256;2022-09-09T07:44:10;54.00;49.00;42.00
57037;PMS5003;59942;49.304;8.256;2022-09-09T07:46:42;58.40;52.00;43.40
57037;PMS5003;59942;49.304;8.256;2022-09-09T07:49:34;55.40;51.20;43.00
57037;PMS5003;59942;49.304;8.256;2022-09-09T07:52:07;56.00;51.40;43.40
57037;PMS5003;59942;49.304;8.256;2022-09-09T07:55:01;54.00;49.00;42.00
57037;PMS5003;59942;49.304;8.256;2022-09-09T07:57:29;54.40;49.00;42.00
57037;PMS5003;59942;49.304;8.256;2022-09-09T08:00:18;53.00;48.80;42.00
57037;PMS5003;59942;49.304;8.256;2022-09-09T08:03:01;55.40;51.20;43.00
57037;PMS5003;59942;49.304;8.256;2022-09-09T08:09:12;53.20;49.00;42.00
57037;PMS5003;59942;49.304;8.256;2022-09-09T08:12:26;56.40;51.60;43.40
57037;PMS5003;59942;49.304;8.256;2022-09-09T08:15:04;54.80;50.00;42.40
57037;PMS5003;59942;49.304;8.256;2022-09-09T08:18:00;53.60;49.00;42.00
57037;PMS5003;59942;49.304;8.256;2022-09-09T08:21:21;55.80;49.00;42.00
57037;PMS5003;59942;49.304;8.256;2022-09-09T08:27:31;52.40;49.00;42.00
57037;PMS5003;59942;49.304;8.256;2022-09-09T08:30:05;55.80;51.40;43.00
57037;PMS5003;59942;49.304;8.256;2022-09-09T08:32:35;54.20;49.40;42.20
57037;PMS5003;59942;49.304;8.256;2022-09-09T08:40:54;53.40;49.40;42.20
57037;PMS5003;59942;49.304;8.256;2022-09-09T08:43:45;55.40;51.20;43.00
57037;PMS5003;59942;49.304;8.256;2022-09-09T08:46:23;58.00;52.00;45.00
57037;PMS5003;59942;49.304;8.256;2022-09-09T08:49:13;58.00;52.40;44.20
57037;PMS5003;59942;49.304;8.256;2022-09-09T08:51:53;58.80;52.00;43.80
57037;PMS5003;59942;49.304;8.256;2022-09-09T08:54:47;58.00;52.00;45.00
57037;PMS5003;59942;49.304;8.256;2022-09-09T08:57:27;57.80;52.00;44.20
57037;PMS5003;59942;49.304;8.256;2022-09-09T09:06:31;58.00;52.00;45.00
57037;PMS5003;59942;49.304;8.256;2022-09-09T09:12:16;61.00;52.80;45.00
57037;PMS5003;59942;49.304;8.256;2022-09-09T09:14:52;61.00;54.20;45.60
57037;PMS5003;59942;49.304;8.256;2022-09-09T09:17:32;60.60;54.00;45.40
57037;PMS5003;59942;49.304;8.256;2022-09-09T09:20:11;60.00;54.00;45.00
57037;PMS5003;59942;49.304;8.256;2022-09-09T09:22:46;60.40;54.00;45.40
57037;PMS5003;59942;49.304;8.256;2022-09-09T09:25:31;57.40;52.00;43.80
57037;PMS5003;59942;49.304;8.256;2022-09-09T09:33:50;58.20;52.00;43.40
57037;PMS5003;59942;49.304;8.256;2022-09-09T09:37:07;55.00;51.00;43.00
57037;PMS5003;59942;49.304;8.256;2022-09-09T09:39:31;57.80;52.40;43.80
57037;PMS5003;59942;49.304;8.256;2022-09-09T09:42:24;59.80;52.80;45.00
57037;PMS5003;59942;49.304;8.256;2022-09-09T09:44:55;57.80;52.00;44.60
57037;PMS5003;59942;49.304;8.256;2022-09-09T09:47:36;55.00;51.00;43.00
57037;PMS5003;59942;49.304;8.256;2022-09-09T09:50:19;55.20;50.80;42.80
57037;PMS5003;59942;49.304;8.256;2022-09-09T09:52:53;58.00;52.40;44.20
57037;PMS5003;59942;49.304;8.256;2022-09-09T09:55:28;55.40;51.20;43.00
57037;PMS5003;59942;49.304;8.256;2022-09-09T09:58:30;56.20;51.60;43.00
57037;PMS5003;59942;49.304;8.256;2022-09-09T10:01:18;59.80;53.60;45.20
57037;PMS5003;59942;49.304;8.256;2022-09-09T10:03:52;59.20;52.00;45.00
57037;PMS5003;59942;49.304;8.256;2022-09-09T10:06:57;59.20;53.20;45.00
57037;PMS5003;59942;49.304;8.256;2022-09-09T10:09:32;61.00;54.00;46.00
57037;PMS5003;59942;49.304;8.256;2022-09-09T10:12:22;60.40;54.00;45.40
57037;PMS5003;59942;49.304;8.256;2022-09-09T10:25:00;60.00;54.00;45.00
57037;PMS5003;59942;49.304;8.256;2022-09-09T10:36:43;60.40;54.00;45.40
57037;PMS5003;59942;49.304;8.256;2022-09-09T10:39:26;61.00;54.00;46.00
57037;PMS5003;59942;49.304;8.256;2022-09-09T10:42:09;63.80;56.00;47.00
57037;PMS5003;59942;49.304;8.256;2022-09-09T10:56:48;70.20;60.40;49.80
57037;PMS5003;59942;49.304;8.256;2022-09-09T10:59:33;61.40;54.20;46.00
57037;PMS5003;59942;49.304;8.256;2022-09-09T11:04:54;61.80;54.00;45.60
57037;PMS5003;59942;49.304;8.256;2022-09-09T11:07:33;60.40;54.00;45.40
57037;PMS5003;59942;49.304;8.256;2022-09-09T11:10:26;61.00;54.00;46.00
57037;PMS5003;59942;49.304;8.256;2022-09-09T11:13:24;64.00;55.00;46.00
57037;PMS5003;59942;49.304;8.256;2022-09-09T11:16:01;63.00;55.00;46.00
57037;PMS5003;59942;49.304;8.256;2022-09-09T11:18:43;61.40;54.20;46.00
57037;PMS5003;59942;49.304;8.256;2022-09-09T11:21:27;63.40;54.00;45.80
57037;PMS5003;59942;49.304;8.256;2022-09-09T11:24:06;74.80;63.40;52.60
57037;PMS5003;59942;49.304;8.256;2022-09-09T11:26:51;63.20;55.60;46.40
57037;PMS5003;59942;49.304;8.256;2022-09-09T11:40:36;65.40;57.00;46.00
57037;PMS5003;59942;49.304;8.256;2022-09-09T11:43:08;61.80;54.40;46.00
57037;PMS5003;59942;49.304;8.256;2022-09-09T11:45:52;66.40;57.40;47.00
57037;PMS5003;59942;49.304;8.256;2022-09-09T11:48:33;64.40;57.00;46.40
57037;PMS5003;59942;49.304;8.256;2022-09-09T11:51:13;69.80;58.60;48.60
57037;PMS5003;59942;49.304;8.256;2022-09-09T11:56:56;66.80;56.60;46.00
57037;PMS5003;59942;49.304;8.256;2022-09-09T11:59:29;64.00;57.00;46.00
57037;PMS5003;59942;49.304;8.256;2022-09-09T12:02:23;63.60;54.80;46.00
57037;PMS5003;59942;49.304;8.256;2022-09-09T12:05:05;64.00;57.00;46.00
57037;PMS5003;59942;49.304;8.256;2022-09-09T12:07:40;66.40;57.40;47.60
57037;PMS5003;59942;49.304;8.256;2022-09-09T12:12:50;66.20;57.20;48.00
57037;PMS5003;59942;49.304;8.256;2022-09-09T12:15:18;69.20;58.00;48.40
57037;PMS5003;59942;49.304;8.256;2022-09-09T12:17:50;66.80;57.40;48.00
57037;PMS5003;59942;49.304;8.256;2022-09-09T12:33:46;63.20;55.40;46.00
57037;PMS5003;59942;49.304;8.256;2022-09-09T12:36:15;62.60;54.80;46.00
57037;PMS5003;59942;49.304;8.256;2022-09-09T12:38:58;58.80;52.80;45.00
57037;PMS5003;59942;49.304;8.256;2022-09-09T12:41:38;73.40;62.80;51.80
57037;PMS5003;59942;49.304;8.256;2022-09-09T12:44:05;62.20;54.60;46.00
57037;PMS5003;59942;49.304;8.256;2022-09-09T12:46:42;61.40;54.20;46.00
57037;PMS5003;59942;49.304;8.256;2022-09-09T12:52:20;63.00;55.60;46.00
57037;PMS5003;59942;49.304;8.256;2022-09-09T12:55:02;60.00;54.00;45.00
57037;PMS5003;59942;49.304;8.256;2022-09-09T12:57:33;60.00;53.60;45.00
57037;PMS5003;59942;49.304;8.256;2022-09-09T13:00:16;60.60;54.00;45.60
57037;PMS5003;59942;49.304;8.256;2022-09-09T13:02:53;60.40;53.80;45.40
57037;PMS5003;59942;49.304;8.256;2022-09-09T13:05:26;60.20;52.80;45.00
57037;PMS5003;59942;49.304;8.256;2022-09-09T13:08:08;55.00;51.00;43.00
57037;PMS5003;59942;49.304;8.256;2022-09-09T13:10:43;57.00;52.00;43.00
57037;PMS5003;59942;49.304;8.256;2022-09-09T13:13:21;55.00;51.00;43.00
57037;PMS5003;59942;49.304;8.256;2022-09-09T13:16:01;55.40;51.20;43.00
57037;PMS5003;59942;49.304;8.256;2022-09-09T13:18:33;56.20;51.60;43.00
57037;PMS5003;59942;49.304;8.256;2022-09-09T13:21:03;59.80;53.60;45.20
57037;PMS5003;59942;49.304;8.256;2022-09-09T13:23:31;55.00;51.00;43.00
57037;PMS5003;59942;49.304;8.256;2022-09-09T13:26:03;57.40;52.00;43.80
57037;PMS5003;59942;49.304;8.256;2022-09-09T13:28:34;59.20;52.00;45.00
57037;PMS5003;59942;49.304;8.256;2022-09-09T13:31:02;61.00;54.00;46.00
57037;PMS5003;59942;49.304;8.256;2022-09-09T13:33:32;60.80;54.00;45.80
57037;PMS5003;59942;49.304;8.256;2022-09-09T13:36:09;62.00;54.80;46.00
57037;PMS5003;59942;49.304;8.256;2022-09-09T13:38:56;61.40;54.20;46.00
57037;PMS5003;59942;49.304;8.256;2022-09-09T13:41:33;60.60;54.00;45.60
57037;PMS5003;59942;49.304;8.256;2022-09-09T13:44:03;73.00;63.00;52.60
57037;PMS5003;59942;49.304;8.256;2022-09-09T13:46:33;60.60;54.00;45.60
57037;PMS5003;59942;49.304;8.256;2022-09-09T13:51:39;63.00;55.00;46.00
57037;PMS5003;59942;49.304;8.256;2022-09-09T13:54:11;61.40;54.20;46.00
57037;PMS5003;59942;49.304;8.256;2022-09-09T13:56:43;59.20;53.20;45.00
57037;PMS5003;59942;49.304;8.256;2022-09-09T13:59:11;62.20;54.60;46.00
57037;PMS5003;59942;49.304;8.256;2022-09-09T14:01:41;59.20;53.20;45.00
57037;PMS5003;59942;49.304;8.256;2022-09-09T14:04:09;61.00;54.00;45.40
57037;PMS5003;59942;49.304;8.256;2022-09-09T14:06:37;63.80;56.60;46.00
57037;PMS5003;59942;49.304;8.256;2022-09-09T14:09:06;68.00;59.20;49.00
57037;PMS5003;59942;49.304;8.256;2022-09-09T14:11:36;69.60;60.00;49.20
57037;PMS5003;59942;49.304;8.256;2022-09-09T14:14:03;60.20;54.00;45.20
57037;PMS5003;59942;49.304;8.256;2022-09-09T14:16:31;60.00;54.00;45.00
57037;PMS5003;59942;49.304;8.256;2022-09-09T14:18:59;60.00;54.00;45.00
57037;PMS5003;59942;49.304;8.256;2022-09-09T14:21:27;61.80;54.40;46.00
57037;PMS5003;59942;49.304;8.256;2022-09-09T14:23:55;60.20;54.00;45.20
57037;PMS5003;59942;49.304;8.256;2022-09-09T14:26:24;58.80;52.80;45.00
57037;PMS5003;59942;49.304;8.256;2022-09-09T14:28:52;72.00;61.20;50.40
57037;PMS5003;59942;49.304;8.256;2022-09-09T14:31:22;58.00;52.00;45.00
57037;PMS5003;59942;49.304;8.256;2022-09-09T14:33:50;62.60;54.40;46.00
57037;PMS5003;59942;49.304;8.256;2022-09-09T14:36:20;60.00;54.00;45.00
57037;PMS5003;59942;49.304;8.256;2022-09-09T14:38:47;59.40;53.20;45.00
57037;PMS5003;59942;49.304;8.256;2022-09-09T14:41:15;57.20;52.00;43.40
57037;PMS5003;59942;49.304;8.256;2022-09-09T14:43:44;62.60;54.00;45.00
57037;PMS5003;59942;49.304;8.256;2022-09-09T14:46:13;57.20;52.00;43.40
57037;PMS5003;59942;49.304;8.256;2022-09-09T14:48:44;56.60;51.80;43.00
57037;PMS5003;59942;49.304;8.256;2022-09-09T14:51:24;55.80;51.40;43.00
57037;PMS5003;59942;49.304;8.256;2022-09-09T14:53:55;59.00;53.00;44.40
57037;PMS5003;59942;49.304;8.256;2022-09-09T14:56:29;54.60;50.20;42.60
57037;PMS5003;59942;49.304;8.256;2022-09-09T14:58:59;57.80;52.00;43.80
57037;PMS5003;59942;49.304;8.256;2022-09-09T15:01:31;51.80;48.80;42.00
57037;PMS5003;59942;49.304;8.256;2022-09-09T15:04:00;54.40;49.80;42.20
57037;PMS5003;59942;49.304;8.256;2022-09-09T15:06:38;52.00;49.00;42.00
57037;PMS5003;59942;49.304;8.256;2022-09-09T15:09:15;55.00;51.00;43.00
57037;PMS5003;59942;49.304;8.256;2022-09-09T15:11:44;56.40;51.60;43.40
57037;PMS5003;59942;49.304;8.256;2022-09-09T15:14:55;55.40;50.60;42.20
57037;PMS5003;59942;49.304;8.256;2022-09-09T15:17:54;58.60;52.80;44.40
57037;PMS5003;59942;49.304;8.256;2022-09-09T15:21:28;55.00;50.40;42.60
57037;PMS5003;59942;49.304;8.256;2022-09-09T15:24:27;54.00;49.00;42.00
57037;PMS5003;59942;49.304;8.256;2022-09-09T15:27:20;55.80;51.40;43.00
57037;PMS5003;59942;49.304;8.256;2022-09-09T15:30:19;55.00;50.40;42.60
57037;PMS5003;59942;49.304;8.256;2022-09-09T15:33:12;55.80;51.40;43.00
57037;PMS5003;59942;49.304;8.256;2022-09-09T15:35:55;55.00;51.00;43.00
57037;PMS5003;59942;49.304;8.256;2022-09-09T15:38:26;55.40;51.20;43.00
57037;PMS5003;59942;49.304;8.256;2022-09-09T15:40:59;57.00;52.00;43.00
57037;PMS5003;59942;49.304;8.256;2022-09-09T15:43:33;57.00;52.00;43.00
57037;PMS5003;59942;49.304;8.256;2022-09-09T15:46:05;57.80;52.00;44.60
57037;PMS5003;59942;49.304;8.256;2022-09-09T15:48:51;57.00;52.00;43.00
57037;PMS5003;59942;49.304;8.256;2022-09-09T15:51:24;58.40;52.40;45.00
57037;PMS5003;59942;49.304;8.256;2022-09-09T15:54:11;57.60;52.00;44.20
57037;PMS5003;59942;49.304;8.256;2022-09-09T15:56:53;57.60;52.00;44.20
57037;PMS5003;59942;49.304;8.256;2022-09-09T15:59:30;57.20;52.00;43.40
57037;PMS5003;59942;49.304;8.256;2022-09-09T16:02:04;59.60;53.60;45.00
57037;PMS5003;59942;49.304;8.256;2022-09-09T16:04:32;59.00;52.80;45.20
57037;PMS5003;59942;49.304;8.256;2022-09-09T16:07:02;60.60;54.00;45.60
57037;PMS5003;59942;49.304;8.256;2022-09-09T16:09:37;61.00;54.00;46.00
57037;PMS5003;59942;49.304;8.256;2022-09-09T16:12:05;58.20;52.40;44.60
57037;PMS5003;59942;49.304;8.256;2022-09-09T16:14:38;58.20;52.00;44.20
57037;PMS5003;59942;49.304;8.256;2022-09-09T16:17:06;60.40;54.00;45.40
57037;PMS5003;59942;49.304;8.256;2022-09-09T16:19:33;57.20;52.00;43.40
57037;PMS5003;59942;49.304;8.256;2022-09-09T16:22:02;57.20;52.00;43.40
57037;PMS5003;59942;49.304;8.256;2022-09-09T16:24:32;58.00;52.40;44.20
57037;PMS5003;59942;49.304;8.256;2022-09-09T16:27:00;57.80;52.40;43.80
57037;PMS5003;59942;49.304;8.256;2022-09-09T16:29:27;56.20;51.60;43.00
57037;PMS5003;59942;49.304;8.256;2022-09-09T16:31:55;55.80;51.40;43.00
57037;PMS5003;59942;49.304;8.256;2022-09-09T16:34:29;56.20;51.60;43.00
57037;PMS5003;59942;49.304;8.256;2022-09-09T16:36:57;55.40;51.20;43.00
57037;PMS5003;59942;49.304;8.256;2022-09-09T16:39:24;55.40;51.20;43.00
57037;PMS5003;59942;49.304;8.256;2022-09-09T16:41:56;56.60;51.80;43.00
57037;PMS5003;59942;49.304;8.256;2022-09-09T16:44:34;58.00;51.40;43.00
57037;PMS5003;59942;49.304;8.256;2022-09-09T16:47:05;67.80;58.80;49.00
57037;PMS5003;59942;49.304;8.256;2022-09-09T16:49:32;58.80;52.80;44.80
57037;PMS5003;59942;49.304;8.256;2022-09-09T16:52:00;56.40;51.60;43.40
57037;PMS5003;59942;49.304;8.256;2022-09-09T16:54:31;54.00;49.00;42.00
57037;PMS5003;59942;49.304;8.256;2022-09-09T16:56:58;54.00;49.00;42.00
57037;PMS5003;59942;49.304;8.256;2022-09-09T16:59:26;57.40;52.00;43.80
57037;PMS5003;59942;49.304;8.256;2022-09-09T17:01:53;54.40;49.80;42.40
57037;PMS5003;59942;49.304;8.256;2022-09-09T17:04:22;55.00;51.00;43.00
57037;PMS5003;59942;49.304;8.256;2022-09-09T17:06:56;57.00;52.00;43.00
57037;PMS5003;59942;49.304;8.256;2022-09-09T17:09:26;54.20;49.40;42.20
57037;PMS5003;59942;49.304;8.256;2022-09-09T17:11:59;55.80;51.40;43.00
57037;PMS5003;59942;49.304;8.256;2022-09-09T17:14:43;55.80;51.40;43.00
57037;PMS5003;59942;49.304;8.256;2022-09-09T17:17:14;54.00;49.00;42.00
57037;PMS5003;59942;49.304;8.256;2022-09-09T17:19:58;54.40;49.80;42.40
57037;PMS5003;59942;49.304;8.256;2022-09-09T17:22:30;53.60;49.00;42.00
57037;PMS5003;59942;49.304;8.256;2022-09-09T17:24:58;60.80;53.20;44.60
57037;PMS5003;59942;49.304;8.256;2022-09-09T17:27:29;53.80;49.40;42.20
57037;PMS5003;59942;49.304;8.256;2022-09-09T17:30:01;52.00;49.00;42.00
57037;PMS5003;59942;49.304;8.256;2022-09-09T17:32:31;54.80;50.00;42.40
57037;PMS5003;59942;49.304;8.256;2022-09-09T17:35:05;56.00;51.40;43.40
57037;PMS5003;59942;49.304;8.256;2022-09-09T17:37:35;54.60;50.00;42.80
57037;PMS5003;59942;49.304;8.256;2022-09-09T17:40:15;54.60;50.00;42.40
57037;PMS5003;59942;49.304;8.256;2022-09-09T17:42:50;54.00;50.00;42.40
57037;PMS5003;59942;49.304;8.256;2022-09-09T17:45:19;52.40;49.00;42.00
57037;PMS5003;59942;49.304;8.256;2022-09-09T17:47:48;51.00;48.00;42.00
57037;PMS5003;59942;49.304;8.256;2022-09-09T17:50:16;53.60;49.00;42.00
57037;PMS5003;59942;49.304;8.256;2022-09-09T17:52:46;52.00;49.00;42.00
57037;PMS5003;59942;49.304;8.256;2022-09-09T17:55:16;52.00;49.00;42.00
57037;PMS5003;59942;49.304;8.256;2022-09-09T17:57:48;54.00;49.00;42.00
57037;PMS5003;59942;49.304;8.256;2022-09-09T18:00:16;51.00;48.00;42.00
57037;PMS5003;59942;49.304;8.256;2022-09-09T18:02:43;53.20;49.40;42.20
57037;PMS5003;59942;49.304;8.256;2022-09-09T18:05:11;52.80;48.00;42.00
57037;PMS5003;59942;49.304;8.256;2022-09-09T18:07:44;57.80;52.20;43.80
57037;PMS5003;59942;49.304;8.256;2022-09-09T18:10:14;52.00;49.00;42.00
57037;PMS5003;59942;49.304;8.256;2022-09-09T18:12:42;50.20;48.00;40.00
57037;PMS5003;59942;49.304;8.256;2022-09-09T18:15:09;52.00;49.00;42.00
57037;PMS5003;59942;49.304;8.256;2022-09-09T18:17:46;53.60;49.00;42.00
57037;PMS5003;59942;49.304;8.256;2022-09-09T18:20:37;51.00;48.00;42.00
57037;PMS5003;59942;49.304;8.256;2022-09-09T18:23:11;51.40;48.40;42.00
57037;PMS5003;59942;49.304;8.256;2022-09-09T18:25:42;51.00;48.00;42.00
57037;PMS5003;59942;49.304;8.256;2022-09-09T18:28:26;53.80;49.40;42.00
57037;PMS5003;59942;49.304;8.256;2022-09-09T18:31:51;53.80;49.00;42.00
57037;PMS5003;59942;49.304;8.256;2022-09-09T18:34:48;52.00;49.00;42.00
57037;PMS5003;59942;49.304;8.256;2022-09-09T18:37:26;51.20;48.20;42.00
57037;PMS5003;59942;49.304;8.256;2022-09-09T18:40:07;51.80;48.40;42.00
57037;PMS5003;59942;49.304;8.256;2022-09-09T18:42:37;49.80;48.00;40.80
57037;PMS5003;59942;49.304;8.256;2022-09-09T18:45:41;50.60;48.00;41.60
57037;PMS5003;59942;49.304;8.256;2022-09-09T18:49:01;63.80;56.20;46.80
57037;PMS5003;59942;49.304;8.256;2022-09-09T18:51:46;50.60;48.00;41.60
57037;PMS5003;59942;49.304;8.256;2022-09-09T18:57:28;49.00;48.00;40.00
57037;PMS5003;59942;49.304;8.256;2022-09-09T19:06:44;51.40;48.40;42.00
57037;PMS5003;59942;49.304;8.256;2022-09-09T19:09:45;52.00;49.00;42.00
57037;PMS5003;59942;49.304;8.256;2022-09-09T19:12:30;55.40;49.40;42.20
57037;PMS5003;59942;49.304;8.256;2022-09-09T19:15:24;56.80;51.20;43.60
57037;PMS5003;59942;49.304;8.256;2022-09-09T19:18:19;52.00;49.00;42.00
57037;PMS5003;59942;49.304;8.256;2022-09-09T19:21:19;54.20;49.00;42.00
57037;PMS5003;59942;49.304;8.256;2022-09-09T19:24:17;54.80;50.60;42.80
57037;PMS5003;59942;49.304;8.256;2022-09-09T19:27:20;51.20;48.20;42.00
57037;PMS5003;59942;49.304;8.256;2022-09-09T19:29:53;51.60;48.60;42.00
57037;PMS5003;59942;49.304;8.256;2022-09-09T19:33:09;51.00;48.00;42.00
57037;PMS5003;59942;49.304;8.256;2022-09-09T19:36:45;49.40;48.00;40.40
57037;PMS5003;59942;49.304;8.256;2022-09-09T19:40:14;51.40;48.00;42.00
57037;PMS5003;59942;49.304;8.256;2022-09-09T19:42:41;51.80;48.40;42.00
57037;PMS5003;59942;49.304;8.256;2022-09-09T19:45:08;51.40;48.40;42.00
57037;PMS5003;59942;49.304;8.256;2022-09-09T19:47:36;51.60;48.40;41.20
57037;PMS5003;59942;49.304;8.256;2022-09-09T19:50:05;52.00;48.00;40.40
57037;PMS5003;59942;49.304;8.256;2022-09-09T19:52:33;51.40;48.20;41.20
57037;PMS5003;59942;49.304;8.256;2022-09-09T19:55:01;65.20;56.80;47.40
57037;PMS5003;59942;49.304;8.256;2022-09-09T19:57:34;51.00;48.00;42.00
57037;PMS5003;59942;49.304;8.256;2022-09-09T20:00:08;48.00;46.00;40.00
57037;PMS5003;59942;49.304;8.256;2022-09-09T20:03:01;48.00;46.00;40.00
57037;PMS5003;59942;49.304;8.256;2022-09-09T20:05:45;51.40;48.40;42.00
57037;PMS5003;59942;49.304;8.256;2022-09-09T20:08:14;49.00;48.00;40.00
57037;PMS5003;59942;49.304;8.256;2022-09-09T20:10:50;49.00;48.00;40.00
57037;PMS5003;59942;49.304;8.256;2022-09-09T20:13:18;51.20;48.20;42.00
57037;PMS5003;59942;49.304;8.256;2022-09-09T20:18:52;51.20;48.00;40.40
57037;PMS5003;59942;49.304;8.256;2022-09-09T20:21:23;49.40;48.00;40.40
57037;PMS5003;59942;49.304;8.256;2022-09-09T20:23:53;60.60;54.40;45.00
57037;PMS5003;59942;49.304;8.256;2022-09-09T20:26:22;49.80;48.00;40.80
57037;PMS5003;59942;49.304;8.256;2022-09-09T20:28:55;49.40;48.00;40.40
57037;PMS5003;59942;49.304;8.256;2022-09-09T20:31:28;63.80;56.20;46.80
57037;PMS5003;59942;49.304;8.256;2022-09-09T20:33:58;51.20;48.20;42.00
57037;PMS5003;59942;49.304;8.256;2022-09-09T20:36:26;51.60;48.60;42.00
57037;PMS5003;59942;49.304;8.256;2022-09-09T20:38:56;51.20;48.20;42.00
57037;PMS5003;59942;49.304;8.256;2022-09-09T20:41:26;51.00;48.00;42.00
57037;PMS5003;59942;49.304;8.256;2022-09-09T20:44:05;50.40;48.00;40.40
57037;PMS5003;59942;49.304;8.256;2022-09-09T20:46:40;48.00;46.00;40.00
57037;PMS5003;59942;49.304;8.256;2022-09-09T20:49:10;48.00;46.00;40.00
57037;PMS5003;59942;49.304;8.256;2022-09-09T20:51:37;52.20;49.00;41.80
57037;PMS5003;59942;49.304;8.256;2022-09-09T20:54:06;49.40;48.00;40.00
57037;PMS5003;59942;49.304;8.256;2022-09-09T20:56:37;49.80;48.00;40.80
57037;PMS5003;59942;49.304;8.256;2022-09-09T20:59:06;50.00;48.20;40.80
57037;PMS5003;59942;49.304;8.256;2022-09-09T21:01:37;48.00;46.00;40.00
57037;PMS5003;59942;49.304;8.256;2022-09-09T21:04:05;51.40;48.40;42.00
57037;PMS5003;59942;49.304;8.256;2022-09-09T21:06:33;49.00;48.00;40.00